Time;durP1;ratioP1;P1;durP2;ratioP2;P2;SDS_P1;SDS_P2;PMS_P1;PMS_P2;Temp;Humidity;BMP_temperature;BMP_pressure;BME280_temperature;BME280_humidity;BME280_pressure;Samples;Min_cycle;Max_cycle;Signal;HPM_P1;HPM_P2
2023/01/12 00:01:28;;;;;;;10.40;1.90;;;5.50;97.80;;;;;;5016009;28;20022;-68
2023/01/12 00:03:54;;;;;;;7.78;1.67;;;5.60;97.60;;;;;;5017294;28;20030;-68
2023/01/12 00:06:20;;;;;;;8.10;1.85;;;5.50;97.50;;;;;;5015442;28;20040;-68
2023/01/12 00:08:47;;;;;;;7.93;1.63;;;5.60;97.50;;;;;;5014687;28;20038;-68
2023/01/12 00:11:15;;;;;;;8.70;1.80;;;5.60;97.30;;;;;;5015216;28;20108;-68
2023/01/12 00:13:40;;;;;;;8.70;2.00;;;5.70;97.20;;;;;;5014716;28;20084;-68
2023/01/12 00:18:50;;;;;;;;;;;5.70;97.50;;;;;;5014864;28;20488;-67
2023/01/12 00:21:16;;;;;;;5.68;1.70;;;5.70;97.80;;;;;;5011382;28;19913;-67
2023/01/12 00:23:43;;;;;;;7.43;1.90;;;5.70;97.70;;;;;;5013908;28;20026;-67
2023/01/12 00:26:10;;;;;;;9.05;2.47;;;5.70;97.20;;;;;;4996992;28;20040;-66
2023/01/12 00:28:36;;;;;;;7.78;2.40;;;5.80;97.00;;;;;;4996860;28;20030;-68
2023/01/12 00:31:07;;;;;;;9.52;2.83;;;5.80;96.30;;;;;;4990885;28;20152;-68
2023/01/12 00:33:34;;;;;;;13.52;2.70;;;5.80;96.60;;;;;;4974791;28;20029;-67
2023/01/12 00:36:08;;;;;;;11.55;2.55;;;5.80;96.20;;;;;;4991281;28;20114;-68
2023/01/12 00:38:35;;;;;;;9.75;2.00;;;5.80;96.00;;;;;;4998656;28;20110;-69
2023/01/12 00:41:09;;;;;;;7.32;1.90;;;5.80;95.70;;;;;;4995070;28;20022;-68
2023/01/12 00:46:30;;;;;;;7.82;1.80;;;5.80;96.20;;;;;;4995917;28;20071;-67
2023/01/12 00:48:56;;;;;;;9.60;2.20;;;5.70;96.30;;;;;;5008304;28;20026;-68
2023/01/12 00:51:22;;;;;;;11.25;1.90;;;5.80;96.10;;;;;;5021687;28;20052;-68
2023/01/12 00:53:48;;;;;;;12.05;2.42;;;5.90;96.10;;;;;;5021684;28;20407;-68
2023/01/12 00:56:14;;;;;;;10.95;2.95;;;5.90;96.20;;;;;;5020712;28;20050;-68
2023/01/12 00:58:40;;;;;;;8.18;1.65;;;6.00;96.00;;;;;;5019323;28;20018;-67
2023/01/12 01:01:07;;;;;;;9.85;1.77;;;6.00;96.10;;;;;;5013501;28;20034;-67
2023/01/12 01:03:33;;;;;;;9.35;2.47;;;6.00;96.10;;;;;;5020721;28;20024;-68
2023/01/12 01:06:06;;;;;;;8.50;2.15;;;6.00;96.30;;;;;;5020380;28;20029;-67
2023/01/12 01:08:34;;;;;;;9.20;2.15;;;6.00;96.20;;;;;;5017475;28;20025;-66
2023/01/12 01:11:06;;;;;;;9.05;2.13;;;6.10;95.50;;;;;;5012520;28;20033;-68
2023/01/12 01:13:32;;;;;;;8.05;2.00;;;6.20;95.60;;;;;;5020053;28;20029;-67
2023/01/12 01:15:59;;;;;;;7.22;1.95;;;6.20;96.00;;;;;;5019773;28;20038;-67
2023/01/12 01:18:25;;;;;;;7.78;1.73;;;6.10;95.80;;;;;;5019348;28;20028;-68
2023/01/12 01:20:51;;;;;;;12.95;2.28;;;6.10;95.80;;;;;;5016661;28;20029;-67
2023/01/12 01:23:20;;;;;;;15.23;2.47;;;6.10;95.60;;;;;;5020535;28;20154;-68
2023/01/12 01:25:46;;;;;;;7.72;1.73;;;6.20;95.20;;;;;;4997446;28;20466;-68
2023/01/12 01:28:11;;;;;;;8.02;2.00;;;6.20;95.10;;;;;;5007884;28;20196;-67
2023/01/12 01:30:38;;;;;;;9.60;2.00;;;6.20;94.90;;;;;;5012756;28;20029;-68
2023/01/12 01:33:03;;;;;;;12.13;2.45;;;6.20;95.00;;;;;;5015752;28;20087;-67
2023/01/12 01:35:29;;;;;;;11.88;2.85;;;6.30;94.60;;;;;;5014486;28;20022;-68
2023/01/12 01:37:54;;;;;;;12.88;2.72;;;6.40;94.20;;;;;;5016246;28;20044;-69
2023/01/12 01:40:20;;;;;;;8.15;1.70;;;6.40;94.40;;;;;;5020297;28;20029;-68
2023/01/12 01:42:45;;;;;;;8.43;1.80;;;6.40;94.20;;;;;;5019134;28;20100;-68
2023/01/12 01:45:12;;;;;;;11.45;2.22;;;6.40;94.10;;;;;;5017208;28;20768;-68
2023/01/12 01:47:47;;;;;;;11.98;2.30;;;6.50;93.50;;;;;;5021267;28;20446;-67
2023/01/12 01:50:22;;;;;;;11.95;2.20;;;6.50;93.20;;;;;;4994124;28;20026;-68
2023/01/12 01:52:55;;;;;;;11.27;2.10;;;6.60;93.00;;;;;;5014555;28;20030;-68
2023/01/12 01:55:38;;;;;;;7.50;1.70;;;6.60;92.80;;;;;;5002968;28;20430;-67
2023/01/12 01:58:20;;;;;;;8.38;2.03;;;6.60;92.50;;;;;;5013151;28;20100;-68
2023/01/12 02:00:46;;;;;;;10.15;1.95;;;6.60;92.20;;;;;;5013398;28;20029;-68
2023/01/12 02:03:13;;;;;;;8.25;1.88;;;6.60;92.10;;;;;;5019558;28;20053;-68
2023/01/12 02:05:42;;;;;;;11.25;2.28;;;6.70;92.00;;;;;;5014542;28;20111;-68
2023/01/12 02:08:33;;;;;;;10.18;2.15;;;6.70;91.90;;;;;;5012553;28;20437;-68
2023/01/12 02:11:01;;;;;;;13.38;2.63;;;6.80;91.20;;;;;;5014030;28;20521;-68
2023/01/12 02:16:22;;;;;;;8.77;1.83;;;6.80;91.90;;;;;;5016305;28;20307;-67
2023/01/12 02:19:12;;;;;;;11.05;2.72;;;6.70;92.50;;;;;;4999021;28;20045;-68
2023/01/12 02:22:01;;;;;;;8.25;2.10;;;6.60;92.50;;;;;;5007531;28;20014;-67
2023/01/12 02:24:35;;;;;;;10.00;1.88;;;6.70;92.50;;;;;;5016815;28;20523;-67
2023/01/12 02:27:29;;;;;;;9.70;1.85;;;6.70;92.80;;;;;;5003365;28;20038;-67
2023/01/12 02:30:16;;;;;;;7.53;1.95;;;6.70;93.10;;;;;;4989892;28;20026;-68
2023/01/12 02:32:59;;;;;;;11.23;2.15;;;6.60;93.40;;;;;;5013887;28;20022;-67
2023/01/12 02:35:30;;;;;;;10.40;2.38;;;6.60;93.80;;;;;;4988987;28;20034;-69
2023/01/12 02:38:24;;;;;;;9.18;2.08;;;6.60;94.00;;;;;;5007099;28;20083;-68
2023/01/12 02:41:17;;;;;;;14.30;2.22;;;6.50;94.20;;;;;;5003809;28;20315;-66
2023/01/12 02:43:43;;;;;;;12.70;2.28;;;6.60;94.20;;;;;;5013712;28;20014;-67
2023/01/12 02:46:26;;;;;;;11.63;2.10;;;6.50;94.40;;;;;;5013739;28;20022;-68
2023/01/12 02:49:13;;;;;;;12.77;2.72;;;6.40;94.70;;;;;;5012417;28;20045;-68
2023/01/12 02:51:57;;;;;;;8.05;2.20;;;6.50;94.60;;;;;;5005411;28;20107;-67
2023/01/12 02:54:23;;;;;;;10.85;2.45;;;6.40;94.70;;;;;;5004509;28;20026;-68
2023/01/12 02:56:52;;;;;;;11.73;2.83;;;6.40;94.90;;;;;;4995882;28;20424;-67
2023/01/12 02:59:49;;;;;;;9.57;2.20;;;6.30;95.20;;;;;;5015053;28;20100;-67
2023/01/12 03:02:18;;;;;;;14.32;2.33;;;6.20;95.60;;;;;;5008913;28;20033;-67
2023/01/12 03:04:44;;;;;;;18.90;3.40;;;6.20;95.80;;;;;;5001982;28;20033;-67
2023/01/12 03:07:32;;;;;;;11.20;2.28;;;6.20;96.00;;;;;;5011444;28;20025;-67
2023/01/12 03:10:19;;;;;;;10.43;2.40;;;6.20;96.00;;;;;;5000302;28;20066;-67
2023/01/12 03:12:47;;;;;;;15.48;2.53;;;6.20;96.00;;;;;;5002786;28;20385;-67
2023/01/12 03:15:16;;;;;;;10.98;2.47;;;6.20;96.00;;;;;;5001190;28;20029;-67
2023/01/12 03:18:07;;;;;;;8.40;2.20;;;6.30;95.80;;;;;;5003576;28;20022;-66
2023/01/12 03:20:37;;;;;;;13.95;2.00;;;6.40;95.70;;;;;;5000980;28;20025;-66
2023/01/12 03:23:15;;;;;;;18.92;4.05;;;6.30;95.80;;;;;;5002136;28;20518;-67
2023/01/12 03:25:44;;;;;;;10.55;2.10;;;6.30;95.90;;;;;;5001009;28;20431;-67
2023/01/12 03:28:13;;;;;;;11.20;2.50;;;6.30;95.70;;;;;;5011378;28;20493;-66
2023/01/12 03:30:59;;;;;;;10.68;2.25;;;6.30;95.90;;;;;;5013186;28;20130;-67
2023/01/12 03:33:25;;;;;;;11.45;2.55;;;6.40;95.60;;;;;;5009721;28;20100;-68
2023/01/12 03:36:25;;;;;;;12.48;2.53;;;6.40;95.70;;;;;;5010000;28;20034;-67
2023/01/12 03:38:59;;;;;;;12.93;2.40;;;6.50;95.60;;;;;;5011224;28;20026;-68
2023/01/12 03:41:52;;;;;;;12.05;2.65;;;6.50;95.20;;;;;;5006755;28;20188;-67
2023/01/12 03:44:29;;;;;;;9.52;1.95;;;6.50;95.30;;;;;;5013536;28;20323;-67
2023/01/12 03:47:02;;;;;;;10.88;2.20;;;6.50;95.30;;;;;;5009280;28;20030;-67
2023/01/12 03:49:38;;;;;;;10.13;2.60;;;6.50;95.30;;;;;;4994313;28;20053;-67
2023/01/12 03:52:06;;;;;;;10.95;1.90;;;6.40;95.40;;;;;;4987160;28;20044;-68
2023/01/12 03:54:33;;;;;;;11.07;2.22;;;6.30;95.80;;;;;;4990760;28;20037;-67
2023/01/12 03:57:01;;;;;;;11.18;2.20;;;6.30;95.90;;;;;;5004275;28;20057;-67
2023/01/12 03:59:27;;;;;;;14.40;2.67;;;6.40;95.60;;;;;;5011128;28;20061;-66
2023/01/12 04:01:52;;;;;;;9.27;2.03;;;6.30;95.60;;;;;;4999510;28;20105;-67
2023/01/12 04:04:19;;;;;;;10.15;2.60;;;6.30;95.50;;;;;;4975204;28;20028;-68
2023/01/12 04:06:44;;;;;;;16.45;2.83;;;6.30;95.20;;;;;;5000773;28;20116;-67
2023/01/12 04:09:10;;;;;;;12.32;2.28;;;6.40;95.10;;;;;;5003147;28;20483;-67
2023/01/12 04:14:20;;;;;;;;;;;6.30;95.20;;;;;;5008950;28;21343;-68
2023/01/12 04:16:45;;;;;;;7.38;2.00;;;6.40;95.10;;;;;;5010002;28;20310;-67
2023/01/12 04:19:11;;;;;;;10.48;2.05;;;6.40;94.70;;;;;;5011494;28;20030;-67
2023/01/12 04:24:21;;;;;;;11.65;1.98;;;6.50;94.80;;;;;;5011879;28;20040;-68
2023/01/12 04:26:46;;;;;;;8.40;1.95;;;6.50;94.90;;;;;;4997295;28;20410;-68
2023/01/12 04:29:12;;;;;;;8.70;2.17;;;6.50;95.10;;;;;;5009216;28;20034;-67
2023/01/12 04:31:38;;;;;;;15.32;2.40;;;6.50;95.00;;;;;;5010396;28;20037;-67
2023/01/12 04:34:03;;;;;;;12.95;2.30;;;6.50;94.90;;;;;;5000507;28;20034;-67
2023/01/12 04:36:29;;;;;;;13.10;2.13;;;6.50;94.90;;;;;;4998863;28;20025;-68
2023/01/12 04:38:54;;;;;;;14.23;2.10;;;6.50;95.00;;;;;;5010955;28;20054;-68
2023/01/12 04:41:20;;;;;;;8.68;2.20;;;6.50;95.00;;;;;;4992561;28;20025;-68
2023/01/12 04:43:45;;;;;;;8.85;2.58;;;6.50;94.60;;;;;;4995399;28;20041;-67
2023/01/12 04:46:11;;;;;;;12.25;2.38;;;6.50;94.70;;;;;;5014589;28;20049;-68
2023/01/12 04:48:38;;;;;;;14.38;2.45;;;6.50;95.00;;;;;;5007418;28;20048;-69
2023/01/12 04:51:04;;;;;;;9.15;1.88;;;6.40;95.10;;;;;;5009072;28;20041;-66
2023/01/12 04:53:29;;;;;;;14.73;2.30;;;6.40;94.90;;;;;;5013640;28;20034;-66
2023/01/12 04:55:55;;;;;;;9.50;2.33;;;6.40;94.90;;;;;;5014763;28;20121;-67
2023/01/12 04:58:21;;;;;;;12.02;2.42;;;6.50;94.70;;;;;;5013100;28;20026;-66
2023/01/12 05:00:46;;;;;;;12.93;2.78;;;6.50;94.50;;;;;;5012243;28;20024;-67
2023/01/12 05:03:13;;;;;;;11.75;2.78;;;6.50;94.80;;;;;;5014533;28;20026;-68
2023/01/12 05:05:39;;;;;;;10.43;2.55;;;6.40;94.80;;;;;;5014611;28;20033;-66
2023/01/12 05:10:51;;;;;;;13.38;2.22;;;6.40;95.00;;;;;;5014978;28;20445;-66
2023/01/12 05:13:17;;;;;;;13.25;2.47;;;6.40;94.60;;;;;;5010254;28;20370;-67
2023/01/12 05:15:42;;;;;;;13.32;2.40;;;6.40;94.50;;;;;;5012275;28;20030;-67
2023/01/12 05:18:08;;;;;;;12.88;2.13;;;6.40;94.50;;;;;;5011405;28;20032;-67
2023/01/12 05:20:33;;;;;;;13.02;3.08;;;6.40;94.20;;;;;;5022843;28;20410;-67
2023/01/12 05:22:59;;;;;;;12.15;2.38;;;6.50;93.70;;;;;;5013596;28;20030;-66
2023/01/12 05:25:25;;;;;;;8.25;2.20;;;6.50;94.00;;;;;;5009132;28;20031;-68
2023/01/12 05:27:56;;;;;;;12.27;2.20;;;6.40;94.00;;;;;;5017079;28;20447;-68
2023/01/12 05:30:22;;;;;;;17.52;2.88;;;6.40;94.10;;;;;;5012889;28;20049;-67
2023/01/12 05:32:47;;;;;;;14.10;2.42;;;6.40;94.20;;;;;;5010811;28;20057;-67
2023/01/12 05:35:13;;;;;;;9.13;2.67;;;6.40;94.10;;;;;;5011014;28;20070;-67
2023/01/12 05:37:38;;;;;;;10.73;2.17;;;6.30;94.30;;;;;;4996581;28;20026;-68
2023/01/12 05:40:05;;;;;;;13.18;2.50;;;6.30;94.40;;;;;;5015221;28;20061;-67
2023/01/12 05:45:14;;;;;;;13.90;1.83;;;6.40;93.60;;;;;;5008223;28;20095;-67
2023/01/12 05:47:40;;;;;;;10.75;2.22;;;6.50;93.60;;;;;;5015953;28;20038;-68
2023/01/12 05:50:06;;;;;;;10.52;3.03;;;6.50;93.50;;;;;;5007725;28;20035;-68
2023/01/12 05:52:31;;;;;;;10.45;2.20;;;6.50;93.70;;;;;;5003363;28;20026;-67
2023/01/12 05:54:57;;;;;;;11.55;2.45;;;6.50;93.70;;;;;;5009558;28;20045;-68
2023/01/12 05:57:22;;;;;;;7.78;1.75;;;6.50;93.80;;;;;;5006715;28;20109;-67
2023/01/12 05:59:51;;;;;;;11.40;2.45;;;6.50;93.90;;;;;;5010106;28;20084;-67
2023/01/12 06:02:17;;;;;;;13.18;2.65;;;6.50;93.80;;;;;;5016132;28;20415;-67
2023/01/12 06:04:43;;;;;;;12.10;2.80;;;6.50;94.30;;;;;;5004457;28;20028;-68
2023/01/12 06:07:12;;;;;;;14.30;2.60;;;6.50;94.50;;;;;;5014912;28;20032;-67
2023/01/12 06:09:38;;;;;;;14.02;2.60;;;6.40;94.80;;;;;;5013727;28;20052;-66
2023/01/12 06:14:49;;;;;;;15.93;2.40;;;6.40;95.30;;;;;;5021451;28;20120;-66
2023/01/12 06:17:14;;;;;;;13.52;2.85;;;6.40;95.20;;;;;;5018332;28;20331;-69
2023/01/12 06:19:42;;;;;;;7.85;2.15;;;6.40;95.40;;;;;;5021011;28;20021;-68
2023/01/12 06:22:09;;;;;;;7.60;2.15;;;6.40;95.50;;;;;;5023913;28;20038;-68
2023/01/12 06:24:35;;;;;;;14.50;2.40;;;6.40;95.30;;;;;;5017710;28;20163;-67
2023/01/12 06:27:00;;;;;;;8.57;2.15;;;6.40;95.30;;;;;;5018023;28;20034;-68
2023/01/12 06:29:26;;;;;;;10.48;2.08;;;6.40;95.30;;;;;;5017841;28;20038;-68
2023/01/12 06:31:54;;;;;;;12.40;2.53;;;6.40;94.90;;;;;;5016673;28;20077;-68
2023/01/12 06:34:23;;;;;;;11.63;2.25;;;6.40;94.90;;;;;;5011570;28;20026;-68
2023/01/12 06:36:48;;;;;;;12.68;2.78;;;6.40;95.20;;;;;;5014843;28;20026;-67
2023/01/12 06:39:14;;;;;;;10.20;2.30;;;6.40;95.50;;;;;;5014118;28;20073;-68
2023/01/12 06:44:24;;;;;;;;;;;6.30;95.50;;;;;;5012509;28;20033;-67
2023/01/12 06:46:49;;;;;;;8.15;1.85;;;6.30;95.50;;;;;;5014616;28;19909;-67
2023/01/12 06:49:15;;;;;;;9.48;2.40;;;6.30;94.90;;;;;;5015888;28;20109;-69
2023/01/12 06:51:41;;;;;;;7.22;1.85;;;6.40;94.80;;;;;;5011761;28;20125;-68
2023/01/12 06:54:07;;;;;;;7.97;1.52;;;6.40;94.50;;;;;;5012278;28;20088;-68
2023/01/12 06:56:33;;;;;;;10.15;2.22;;;6.40;94.40;;;;;;5014399;28;20061;-67
2023/01/12 06:58:58;;;;;;;9.90;2.10;;;6.40;94.60;;;;;;5013226;28;20097;-67
2023/01/12 07:01:25;;;;;;;8.95;1.55;;;6.40;94.50;;;;;;5013743;28;20064;-67
2023/01/12 07:03:51;;;;;;;6.90;1.67;;;6.40;94.60;;;;;;5016431;28;20426;-70
2023/01/12 07:06:17;;;;;;;8.63;1.60;;;6.40;94.50;;;;;;5009964;28;20029;-67
2023/01/12 07:08:43;;;;;;;8.23;1.77;;;6.50;93.80;;;;;;5028081;28;20092;-68
2023/01/12 07:11:11;;;;;;;9.50;1.80;;;6.60;93.60;;;;;;5017402;28;20060;-68
2023/01/12 07:13:36;;;;;;;7.15;1.88;;;6.60;93.70;;;;;;5017316;28;20445;-68
2023/01/12 07:16:02;;;;;;;8.30;1.50;;;6.60;93.20;;;;;;5017255;28;20035;-69
2023/01/12 07:18:28;;;;;;;6.35;1.75;;;6.60;93.10;;;;;;5017128;28;20022;-68
2023/01/12 07:20:54;;;;;;;8.35;2.55;;;6.60;93.20;;;;;;5015271;28;20415;-67
2023/01/12 07:23:19;;;;;;;8.68;1.85;;;6.60;93.30;;;;;;5016931;28;20038;-68
2023/01/12 07:25:45;;;;;;;8.13;1.73;;;6.60;93.30;;;;;;4999714;28;20030;-67
2023/01/12 07:28:10;;;;;;;9.52;1.77;;;6.70;93.20;;;;;;5015496;28;20402;-67
2023/01/12 07:30:36;;;;;;;9.13;1.67;;;6.70;93.40;;;;;;5017172;28;20025;-68
2023/01/12 07:33:07;;;;;;;12.18;1.85;;;6.70;93.40;;;;;;5014434;28;20022;-68
2023/01/12 07:35:33;;;;;;;7.82;1.58;;;6.80;92.80;;;;;;4998534;28;20495;-68
2023/01/12 07:37:58;;;;;;;7.97;1.90;;;6.80;93.00;;;;;;5014238;28;20109;-69
2023/01/12 07:40:24;;;;;;;6.70;1.58;;;6.80;93.20;;;;;;5016930;28;20026;-67
2023/01/12 07:43:06;;;;;;;7.47;1.70;;;6.80;93.00;;;;;;5015002;28;20029;-67
2023/01/12 07:45:33;;;;;;;7.03;1.55;;;6.90;93.20;;;;;;5016794;28;20320;-68
2023/01/12 07:47:58;;;;;;;6.78;1.73;;;6.90;93.20;;;;;;5012283;28;20034;-68
2023/01/12 07:50:25;;;;;;;8.40;1.83;;;6.90;93.00;;;;;;5016248;28;20036;-68
2023/01/12 07:52:52;;;;;;;8.23;1.70;;;6.90;92.80;;;;;;5014028;28;20400;-68
2023/01/12 07:55:18;;;;;;;16.63;4.20;;;7.00;92.70;;;;;;5016692;28;20411;-67
2023/01/12 07:57:57;;;;;;;7.88;2.50;;;7.00;92.60;;;;;;5014441;28;20036;-68
2023/01/12 08:00:24;;;;;;;10.48;2.03;;;7.00;92.80;;;;;;5027223;28;20032;-67
2023/01/12 08:02:51;;;;;;;7.55;1.60;;;7.00;93.00;;;;;;5016669;28;20485;-69
2023/01/12 08:05:17;;;;;;;15.45;2.63;;;7.00;93.00;;;;;;5014485;28;20048;-69
2023/01/12 08:07:43;;;;;;;8.68;1.88;;;7.10;93.10;;;;;;5014515;28;20113;-69
2023/01/12 08:10:10;;;;;;;10.15;2.60;;;7.10;93.10;;;;;;4995052;28;20145;-69
2023/01/12 08:12:36;;;;;;;4.93;1.30;;;7.10;92.90;;;;;;5014756;28;20334;-69
2023/01/12 08:15:03;;;;;;;7.65;1.55;;;7.20;92.80;;;;;;5016135;28;20026;-69
2023/01/12 08:17:32;;;;;;;5.55;1.40;;;7.10;92.70;;;;;;5015294;28;20032;-69
2023/01/12 08:20:06;;;;;;;8.52;1.55;;;7.20;92.50;;;;;;4997766;28;20076;-68
2023/01/12 08:22:35;;;;;;;8.30;1.40;;;7.30;92.20;;;;;;5013958;28;20104;-68
2023/01/12 08:25:08;;;;;;;7.57;1.92;;;7.30;92.20;;;;;;5013309;28;20095;-69
2023/01/12 08:27:36;;;;;;;8.98;1.73;;;7.30;92.20;;;;;;5016166;28;20025;-68
2023/01/12 08:30:07;;;;;;;5.32;1.45;;;7.30;92.10;;;;;;5016305;28;20056;-68
2023/01/12 08:32:35;;;;;;;8.70;2.03;;;7.30;92.50;;;;;;5015859;28;20030;-68
2023/01/12 08:35:02;;;;;;;13.82;2.33;;;7.30;92.30;;;;;;5016011;28;20332;-68
2023/01/12 08:37:29;;;;;;;7.28;2.50;;;7.30;92.60;;;;;;5014018;28;20022;-67
2023/01/12 08:39:55;;;;;;;5.20;1.60;;;7.30;92.60;;;;;;5015987;28;20310;-67
2023/01/12 08:42:23;;;;;;;10.27;1.80;;;7.30;92.50;;;;;;4998843;28;20018;-68
2023/01/12 08:44:49;;;;;;;10.73;1.60;;;7.30;92.20;;;;;;5015941;28;20100;-67
2023/01/12 08:47:21;;;;;;;7.03;1.50;;;7.40;92.20;;;;;;5014464;28;20492;-67
2023/01/12 08:49:47;;;;;;;9.05;1.70;;;7.40;92.20;;;;;;5014748;28;20332;-68
2023/01/12 08:52:14;;;;;;;7.82;1.50;;;7.40;92.10;;;;;;5012306;28;20022;-68
2023/01/12 08:54:40;;;;;;;7.43;1.45;;;7.40;92.20;;;;;;5015077;28;20339;-68
2023/01/12 08:57:05;;;;;;;7.65;1.70;;;7.40;92.10;;;;;;5014438;28;20031;-67
2023/01/12 08:59:31;;;;;;;5.35;1.25;;;7.40;92.10;;;;;;5016046;28;20029;-67
2023/01/12 09:01:56;;;;;;;9.70;1.60;;;7.40;91.90;;;;;;5019904;28;20097;-67
2023/01/12 09:04:22;;;;;;;8.57;1.80;;;7.40;91.80;;;;;;5016535;28;20054;-67
2023/01/12 09:06:48;;;;;;;6.88;1.70;;;7.40;91.90;;;;;;5018348;28;20037;-68
2023/01/12 09:09:16;;;;;;;9.30;1.48;;;7.40;91.70;;;;;;5018417;28;20030;-68
2023/01/12 09:11:43;;;;;;;6.75;1.95;;;7.40;92.00;;;;;;5018031;28;20076;-69
2023/01/12 09:14:09;;;;;;;10.35;1.52;;;7.40;92.10;;;;;;5016400;28;20038;-69
2023/01/12 09:16:36;;;;;;;6.25;1.50;;;7.40;92.20;;;;;;5001244;28;20026;-68
2023/01/12 09:19:02;;;;;;;5.97;1.50;;;7.40;92.00;;;;;;5001045;28;20437;-68
2023/01/12 09:21:29;;;;;;;6.07;1.60;;;7.40;92.00;;;;;;5018213;28;20022;-67
2023/01/12 09:23:55;;;;;;;6.65;1.63;;;7.40;91.90;;;;;;5017298;28;20327;-68
2023/01/12 09:26:31;;;;;;;5.68;1.50;;;7.40;92.10;;;;;;5017796;28;20041;-68
2023/01/12 09:29:03;;;;;;;13.35;2.13;;;7.50;91.70;;;;;;5017277;28;20029;-68
2023/01/12 09:31:30;;;;;;;7.03;1.80;;;7.50;91.70;;;;;;5017273;28;20057;-68
2023/01/12 09:33:56;;;;;;;7.40;2.42;;;7.60;91.70;;;;;;5019257;28;20085;-68
2023/01/12 09:36:27;;;;;;;7.45;1.80;;;7.60;91.70;;;;;;5015833;28;20029;-68
2023/01/12 09:38:53;;;;;;;7.65;1.40;;;7.70;91.70;;;;;;5019286;28;20026;-68
2023/01/12 09:47:20;;;;;;;6.82;1.50;;;7.60;91.60;;;;;;5018055;28;20045;-68
2023/01/12 09:49:54;;;;;;;7.82;1.60;;;7.60;91.60;;;;;;5019093;28;20029;-68
2023/01/12 09:52:33;;;;;;;5.20;1.50;;;7.60;91.80;;;;;;5015249;28;20323;-67
2023/01/12 09:54:58;;;;;;;5.55;1.60;;;7.60;91.80;;;;;;5018817;28;20068;-70
2023/01/12 09:57:50;;;;;;;9.27;1.55;;;7.60;92.10;;;;;;4999847;28;20428;-68
2023/01/12 10:00:17;;;;;;;7.50;1.85;;;7.60;92.00;;;;;;5001173;28;20422;-68
2023/01/12 10:03:18;;;;;;;7.47;1.75;;;7.60;92.20;;;;;;5017153;28;20368;-68
2023/01/12 10:05:52;;;;;;;6.82;1.73;;;7.60;92.20;;;;;;5018789;28;20334;-68
2023/01/12 10:08:31;;;;;;;8.57;1.63;;;7.60;92.20;;;;;;5017088;28;20026;-68
2023/01/12 10:11:21;;;;;;;7.90;2.17;;;7.60;92.30;;;;;;5016501;28;20050;-68
2023/01/12 10:14:05;;;;;;;6.40;2.00;;;7.60;92.40;;;;;;4999471;28;20056;-68
2023/01/12 10:16:41;;;;;;;8.68;1.90;;;7.60;92.50;;;;;;5016928;28;20021;-68
2023/01/12 10:19:34;;;;;;;6.72;1.77;;;7.60;92.60;;;;;;4998447;28;20114;-68
2023/01/12 10:22:09;;;;;;;6.88;1.67;;;7.60;92.50;;;;;;5009091;28;20036;-68
2023/01/12 10:24:40;;;;;;;5.90;1.20;;;7.70;92.30;;;;;;5017349;28;20029;-68
2023/01/12 10:27:12;;;;;;;5.72;1.33;;;7.80;92.30;;;;;;5017463;28;20030;-68
2023/01/12 10:29:37;;;;;;;5.18;1.52;;;7.80;92.10;;;;;;5016410;28;20381;-68
2023/01/12 10:32:03;;;;;;;4.55;1.42;;;7.90;91.80;;;;;;5017550;28;20026;-69
2023/01/12 10:34:51;;;;;;;5.13;1.30;;;7.90;92.20;;;;;;5017101;28;22132;-68
2023/01/12 10:37:16;;;;;;;5.40;1.50;;;7.90;91.60;;;;;;5006269;28;20038;-68
2023/01/12 10:39:43;;;;;;;4.68;1.17;;;8.00;92.00;;;;;;5017161;28;20032;-68
2023/01/12 10:45:20;;;;;;;4.95;1.33;;;8.10;91.40;;;;;;4998572;28;20041;-67
2023/01/12 10:47:47;;;;;;;4.97;1.63;;;8.10;91.30;;;;;;5011774;28;20509;-67
2023/01/12 10:50:26;;;;;;;5.38;1.20;;;8.20;91.10;;;;;;5018085;28;20049;-67
2023/01/12 10:53:01;;;;;;;6.47;1.35;;;8.30;90.70;;;;;;5015647;28;20026;-67
2023/01/12 10:55:33;;;;;;;4.22;1.20;;;8.30;90.70;;;;;;5015733;28;20057;-69
2023/01/12 10:57:59;;;;;;;4.07;1.20;;;8.50;90.30;;;;;;5014801;28;20030;-69
2023/01/12 11:00:26;;;;;;;7.07;1.58;;;8.60;90.20;;;;;;4999044;28;20022;-69
2023/01/12 11:02:52;;;;;;;4.78;1.30;;;8.60;89.70;;;;;;5015661;28;20052;-69
2023/01/12 11:05:36;;;;;;;3.88;1.45;;;8.40;90.40;;;;;;5015869;28;20026;-69
2023/01/12 11:08:32;;;;;;;3.42;1.05;;;8.30;90.70;;;;;;5016022;28;20072;-69
2023/01/12 11:11:32;;;;;;;2.92;1.00;;;8.40;90.50;;;;;;5007503;28;20358;-69
2023/01/12 11:14:03;;;;;;;4.30;1.40;;;8.40;90.60;;;;;;5016315;28;20423;-68
2023/01/12 11:16:33;;;;;;;3.42;1.30;;;8.30;90.80;;;;;;5015304;28;20033;-69
2023/01/12 11:19:09;;;;;;;4.43;1.10;;;8.40;91.10;;;;;;5017365;28;20032;-69
2023/01/12 11:21:38;;;;;;;4.63;1.60;;;8.40;91.20;;;;;;5015194;28;20379;-69
2023/01/12 11:24:15;;;;;;;4.60;1.20;;;8.40;90.50;;;;;;5013211;28;20022;-68
2023/01/12 11:27:26;;;;;;;3.58;1.10;;;8.40;90.80;;;;;;5015556;28;20037;-69
2023/01/12 11:30:04;;;;;;;4.32;1.10;;;8.40;90.90;;;;;;4956091;28;20027;-68
2023/01/12 11:32:36;;;;;;;5.05;1.70;;;8.40;91.10;;;;;;4956919;29;20035;-68
2023/01/12 11:35:17;;;;;;;4.55;1.60;;;8.40;91.00;;;;;;4995114;28;20042;-68
2023/01/12 11:37:44;;;;;;;4.60;1.30;;;8.50;91.00;;;;;;5014501;28;20067;-68
2023/01/12 11:40:33;;;;;;;3.17;0.95;;;8.50;90.50;;;;;;4999564;28;20022;-68
2023/01/12 11:46:34;;;;;;;9.23;2.72;;;8.50;91.30;;;;;;5017242;28;20104;-68
2023/01/12 11:49:12;;;;;;;6.40;2.33;;;8.50;91.10;;;;;;5016754;28;20580;-68
2023/01/12 11:51:39;;;;;;;6.60;1.60;;;8.50;91.50;;;;;;4997334;28;20357;-67
2023/01/12 11:54:06;;;;;;;5.07;1.35;;;8.50;91.70;;;;;;5016835;28;20049;-68
2023/01/12 11:56:59;;;;;;;10.05;1.17;;;8.50;91.90;;;;;;5016550;28;20030;-69
2023/01/12 11:59:49;;;;;;;6.10;1.63;;;8.50;92.20;;;;;;5016584;28;20093;-68
2023/01/12 12:02:36;;;;;;;3.00;1.10;;;8.40;92.00;;;;;;5016560;28;20036;-68
2023/01/12 12:05:22;;;;;;;2.38;1.00;;;8.40;92.30;;;;;;5016542;28;20034;-68
2023/01/12 12:07:54;;;;;;;2.75;0.80;;;8.40;92.40;;;;;;5014593;28;20030;-68
2023/01/12 12:10:31;;;;;;;3.45;0.90;;;8.30;92.60;;;;;;5015420;28;20070;-68
2023/01/12 12:13:20;;;;;;;3.33;1.00;;;8.30;92.70;;;;;;4998368;28;20029;-69
2023/01/12 12:16:11;;;;;;;3.40;1.10;;;8.30;92.70;;;;;;5014877;28;20398;-68
2023/01/12 12:18:55;;;;;;;3.20;1.02;;;8.40;92.40;;;;;;5016535;28;20053;-68
2023/01/12 12:21:29;;;;;;;3.42;1.20;;;8.30;92.40;;;;;;5015152;28;20026;-68
2023/01/12 12:23:57;;;;;;;3.65;1.60;;;8.40;92.40;;;;;;5016268;28;20030;-68
2023/01/12 12:26:32;;;;;;;2.90;1.13;;;8.30;92.50;;;;;;5016356;28;20087;-69
2023/01/12 12:29:31;;;;;;;3.58;1.20;;;8.30;92.70;;;;;;5016346;28;20038;-68
2023/01/12 12:32:28;;;;;;;5.25;2.38;;;8.30;92.80;;;;;;4996578;28;20069;-69
2023/01/12 12:35:20;;;;;;;3.05;1.13;;;8.30;93.10;;;;;;4978917;28;20053;-68
2023/01/12 12:37:55;;;;;;;3.58;1.20;;;8.40;93.00;;;;;;4995284;28;20106;-68
2023/01/12 12:45:15;;;;;;;3.47;0.80;;;8.40;92.60;;;;;;4996480;28;20027;-68
2023/01/12 12:46:41;;;;;;;3.75;1.00;;;8.30;92.60;;;;;;5014996;28;20441;-68
2023/01/12 12:49:14;;;;;;;4.45;1.35;;;8.30;92.90;;;;;;5016139;28;20037;-68
2023/01/12 12:51:41;;;;;;;3.50;1.10;;;8.30;92.90;;;;;;5014879;28;20026;-69
2023/01/12 12:54:15;;;;;;;4.18;1.23;;;8.30;93.20;;;;;;5015829;28;20022;-68
2023/01/12 12:56:42;;;;;;;2.53;0.93;;;8.40;92.60;;;;;;4998662;28;20034;-69
2023/01/12 12:59:30;;;;;;;3.40;1.00;;;8.40;92.80;;;;;;5015030;28;20412;-69
2023/01/12 13:01:58;;;;;;;5.38;1.60;;;8.50;92.60;;;;;;5015732;28;20030;-68
2023/01/12 13:04:42;;;;;;;4.88;0.98;;;8.50;92.40;;;;;;5015855;28;20026;-68
2023/01/12 13:07:14;;;;;;;3.00;0.90;;;8.50;92.40;;;;;;5014807;28;20057;-68
2023/01/12 13:09:40;;;;;;;7.60;1.52;;;8.50;92.40;;;;;;5015427;28;20050;-68
2023/01/12 13:12:05;;;;;;;3.28;1.10;;;8.50;92.40;;;;;;5015756;28;20049;-68
2023/01/12 13:14:39;;;;;;;2.65;1.10;;;8.60;92.40;;;;;;5014876;28;20430;-68
2023/01/12 13:17:20;;;;;;;;;;;8.50;92.40;;;;;;5015977;28;20041;-68
2023/01/12 13:19:48;;;;;;;3.90;1.40;;;8.60;92.60;;;;;;5015803;28;19909;-68
2023/01/12 13:22:27;;;;;;;3.63;1.30;;;8.50;92.70;;;;;;5014287;28;20327;-68
2023/01/12 13:24:56;;;;;;;4.90;1.05;;;8.50;92.60;;;;;;5015433;28;20022;-68
2023/01/12 13:27:43;;;;;;;4.00;1.17;;;8.50;93.00;;;;;;5015612;28;20026;-68
2023/01/12 13:30:22;;;;;;;3.65;1.38;;;8.60;93.20;;;;;;5013836;28;20121;-68
2023/01/12 13:32:54;;;;;;;2.53;1.13;;;8.50;93.40;;;;;;5015673;28;20026;-68
2023/01/12 13:35:34;;;;;;;4.90;1.58;;;8.50;93.40;;;;;;5015420;28;20407;-67
2023/01/12 13:38:26;;;;;;;4.82;1.20;;;8.60;93.30;;;;;;5014380;28;20037;-68
2023/01/12 13:41:00;;;;;;;3.72;1.00;;;8.60;93.50;;;;;;5015667;28;20109;-67
2023/01/12 13:43:32;;;;;;;4.53;1.60;;;8.60;93.50;;;;;;5015364;28;20029;-67
2023/01/12 13:46:03;;;;;;;1.42;0.82;;;8.60;93.70;;;;;;4995956;28;20031;-67
2023/01/12 13:48:31;;;;;;;2.90;1.00;;;8.60;93.70;;;;;;4998851;28;20054;-67
2023/01/12 13:51:13;;;;;;;1.85;0.80;;;8.60;93.40;;;;;;4998239;28;20109;-69
2023/01/12 13:53:39;;;;;;;3.10;0.95;;;8.50;93.80;;;;;;4999301;28;20058;-69
2023/01/12 13:56:06;;;;;;;2.03;0.95;;;8.40;94.00;;;;;;4999260;28;20065;-68
2023/01/12 13:58:40;;;;;;;3.25;1.05;;;8.40;94.20;;;;;;5001167;28;20091;-68